createdAt,value
2022-08-31T00:03:52.501Z,0.77
2022-08-31T00:09:00.835Z,0.71
2022-08-31T00:14:07.323Z,0.91
2022-08-31T00:19:13.706Z,0.68
2022-08-31T00:24:20.193Z,1.07
2022-08-31T00:29:27.097Z,0.85
2022-08-31T00:34:33.576Z,0.54
2022-08-31T00:39:40.379Z,0.65
2022-08-31T00:44:46.865Z,0.79
2022-08-31T00:49:53.664Z,0.60
2022-08-31T00:55:00.155Z,0.75
2022-08-31T01:00:06.954Z,0.66
2022-08-31T01:05:13.439Z,0.87
2022-08-31T01:10:20.639Z,0.86
2022-08-31T01:15:27.126Z,0.99
2022-08-31T01:20:33.923Z,0.99
2022-08-31T01:25:40.326Z,1.04
2022-08-31T01:30:47.100Z,0.94
2022-08-31T01:35:53.522Z,0.99
2022-08-31T01:41:00.999Z,0.74
2022-08-31T01:46:07.979Z,0.94
2022-08-31T01:51:14.458Z,1.00
2022-08-31T01:56:20.874Z,0.74
2022-08-31T02:01:33.535Z,1.13
2022-08-31T02:06:33.549Z,1.17
2022-08-31T02:11:40.442Z,1.02
2022-08-31T02:16:46.925Z,0.96
2022-08-31T02:21:53.825Z,1.06
2022-08-31T02:27:00.311Z,1.11
2022-08-31T02:32:07.204Z,1.15
2022-08-31T02:37:13.696Z,1.25
2022-08-31T02:42:21.710Z,0.95
2022-08-31T02:47:27.695Z,0.90
2022-08-31T02:52:34.599Z,1.02
2022-08-31T02:57:40.986Z,1.14
2022-08-31T03:02:49.489Z,1.31
2022-08-31T03:07:55.801Z,0.81
2022-08-31T03:13:02.699Z,1.03
2022-08-31T03:18:09.112Z,0.99
2022-08-31T03:23:15.776Z,1.77
2022-08-31T03:28:22.267Z,1.38
2022-08-31T03:33:29.162Z,1.24
2022-08-31T03:38:35.649Z,1.11
2022-08-31T03:43:42.450Z,1.34
2022-08-31T03:48:48.420Z,1.36
2022-08-31T03:53:55.308Z,1.25
2022-08-31T03:59:01.698Z,1.37
2022-08-31T04:04:08.503Z,1.24
2022-08-31T04:09:14.986Z,1.63
2022-08-31T04:14:22.393Z,1.56
2022-08-31T04:19:31.159Z,1.39
2022-08-31T04:24:35.134Z,1.91
2022-08-31T04:29:41.554Z,1.28
2022-08-31T04:34:48.495Z,1.42
2022-08-31T04:39:54.756Z,1.41
2022-08-31T04:45:01.328Z,1.56
2022-08-31T04:50:07.728Z,1.50
2022-08-31T04:55:14.679Z,1.97
2022-08-31T05:00:21.390Z,1.86
2022-08-31T05:05:28.208Z,1.63
2022-08-31T05:10:34.586Z,1.38
2022-08-31T05:15:41.530Z,1.61
2022-08-31T05:20:47.900Z,1.57
2022-08-31T05:25:54.717Z,1.64
2022-08-31T05:31:01.181Z,1.46
2022-08-31T05:36:07.938Z,1.81
2022-08-31T05:41:13.991Z,1.47
2022-08-31T05:46:20.865Z,2.06
2022-08-31T05:51:27.308Z,1.72
2022-08-31T05:56:34.096Z,1.73
2022-08-31T06:01:40.667Z,1.80
2022-08-31T06:06:47.586Z,1.81
2022-08-31T06:11:54.220Z,1.72
2022-08-31T06:17:00.929Z,1.88
2022-08-31T06:22:07.400Z,1.50
2022-08-31T06:27:14.252Z,2.22
2022-08-31T06:32:24.501Z,1.81
2022-08-31T06:37:21.299Z,1.75
2022-08-31T06:42:27.678Z,1.78
2022-08-31T06:47:34.358Z,1.74
2022-08-31T06:52:41.007Z,1.98
2022-08-31T06:57:48.495Z,2.14
2022-08-31T07:02:57.965Z,1.72
2022-08-31T07:08:01.560Z,1.65
2022-08-31T07:13:08.066Z,1.55
2022-08-31T07:18:15.306Z,1.77
2022-08-31T07:23:24.796Z,1.73
2022-08-31T07:28:31.529Z,1.80
2022-08-31T07:33:38.113Z,1.90
2022-08-31T07:38:45.085Z,1.50
2022-08-31T07:43:51.602Z,2.01
2022-08-31T07:48:58.492Z,1.84
2022-08-31T07:54:05.398Z,1.41
2022-08-31T07:59:12.305Z,1.91
2022-08-31T08:04:18.744Z,1.47
2022-08-31T08:09:25.527Z,1.39
2022-08-31T08:14:31.962Z,1.87
2022-08-31T08:19:39.416Z,1.41
2022-08-31T08:24:45.900Z,1.88
2022-08-31T08:29:53.013Z,1.61
2022-08-31T08:34:59.551Z,1.78
2022-08-31T08:40:06.532Z,1.92
2022-08-31T08:45:12.918Z,1.39
2022-08-31T08:50:19.714Z,1.58
2022-08-31T08:55:26.039Z,1.81
2022-08-31T09:00:32.898Z,1.55
2022-08-31T09:05:39.078Z,2.13
2022-08-31T09:10:46.072Z,1.52
2022-08-31T09:15:52.642Z,1.84
2022-08-31T09:20:59.983Z,1.46
2022-08-31T09:26:08.442Z,1.62
2022-08-31T09:31:12.798Z,1.49
2022-08-31T09:36:19.228Z,2.01
2022-08-31T09:41:26.058Z,1.35
2022-08-31T09:46:32.517Z,1.77
2022-08-31T09:51:40.130Z,1.62
2022-08-31T09:56:46.617Z,1.11
2022-08-31T10:01:53.614Z,1.79
2022-08-31T10:07:00.564Z,1.70
2022-08-31T10:12:07.244Z,1.73
2022-08-31T10:17:13.656Z,2.00
2022-08-31T10:22:21.741Z,1.72
2022-08-31T10:27:28.220Z,1.56
2022-08-31T10:32:35.688Z,1.44
2022-08-31T10:37:42.116Z,1.46
2022-08-31T10:42:49.629Z,2.12
2022-08-31T10:47:56.109Z,1.26
2022-08-31T10:53:03.027Z,1.66
2022-08-31T10:58:09.286Z,1.65
2022-08-31T11:03:16.029Z,1.42
2022-08-31T11:08:22.569Z,0.97
2022-08-31T11:13:29.364Z,1.48
2022-08-31T11:18:35.918Z,1.36
2022-08-31T11:23:45.135Z,1.57
2022-08-31T11:28:48.725Z,1.15
2022-08-31T11:34:14.200Z,1.27
2022-08-31T11:39:01.365Z,1.30
2022-08-31T11:44:08.085Z,1.05
2022-08-31T11:49:14.614Z,0.81
2022-08-31T11:54:21.485Z,1.27
2022-08-31T11:59:28.077Z,1.96
2022-08-31T12:04:36.125Z,1.70
2022-08-31T12:09:42.070Z,1.68
2022-08-31T12:14:49.779Z,1.61
2022-08-31T12:20:00.562Z,1.36
2022-08-31T12:25:03.788Z,1.08
2022-08-31T12:30:10.463Z,1.67
2022-08-31T12:35:18.248Z,1.80
2022-08-31T12:40:24.721Z,1.11
2022-08-31T12:45:31.615Z,1.21
2022-08-31T12:50:38.466Z,1.21
2022-08-31T12:55:45.218Z,1.55
2022-08-31T13:00:51.644Z,1.50
2022-08-31T13:05:59.139Z,1.19
2022-08-31T13:11:05.654Z,1.46
2022-08-31T13:16:13.576Z,1.23
2022-08-31T13:21:20.059Z,1.12
2022-08-31T13:26:26.982Z,1.62
2022-08-31T13:31:33.472Z,1.20
2022-08-31T13:36:40.248Z,1.25
2022-08-31T13:41:46.878Z,1.39
2022-08-31T13:46:53.756Z,1.54
2022-08-31T13:52:00.085Z,1.02
2022-08-31T13:57:07.115Z,1.26
2022-08-31T14:02:13.625Z,1.46
2022-08-31T14:07:22.001Z,1.44
2022-08-31T14:12:28.522Z,1.07
2022-08-31T14:17:35.623Z,0.88
2022-08-31T14:22:42.119Z,1.12
2022-08-31T14:27:49.116Z,1.13
2022-08-31T14:32:55.502Z,1.34
2022-08-31T14:38:02.343Z,1.33
2022-08-31T14:43:09.228Z,1.16
2022-08-31T14:48:16.738Z,1.27
2022-08-31T14:53:23.101Z,1.46
2022-08-31T14:58:30.696Z,1.52
2022-08-31T15:03:40.581Z,1.33
2022-08-31T15:08:48.129Z,1.09
2022-08-31T15:13:54.567Z,1.13
2022-08-31T15:19:01.629Z,1.40
2022-08-31T15:24:08.055Z,1.04
2022-08-31T15:29:16.419Z,1.39
2022-08-31T15:34:21.256Z,1.24
2022-08-31T15:39:28.071Z,1.32
2022-08-31T15:44:35.320Z,1.64
2022-08-31T15:49:41.012Z,1.00
2022-08-31T15:54:47.603Z,1.17
2022-08-31T15:59:54.523Z,1.33
2022-08-31T16:05:00.888Z,1.21
2022-08-31T16:10:11.746Z,1.00
2022-08-31T16:15:27.395Z,1.24
2022-08-31T16:20:23.213Z,1.24
2022-08-31T16:25:29.596Z,1.23
2022-08-31T16:30:37.005Z,1.28
2022-08-31T16:35:44.728Z,1.01
2022-08-31T16:40:51.567Z,0.74
2022-08-31T16:45:58.046Z,1.30
2022-08-31T16:51:05.623Z,1.32
2022-08-31T16:56:12.108Z,1.01
2022-08-31T17:01:19.674Z,0.84
2022-08-31T17:06:26.040Z,0.98
2022-08-31T17:11:32.918Z,1.04
2022-08-31T17:16:39.487Z,1.09
2022-08-31T17:21:46.285Z,0.85
2022-08-31T17:26:52.930Z,0.97
2022-08-31T17:32:00.240Z,1.22
2022-08-31T17:37:06.680Z,0.95
2022-08-31T17:42:13.474Z,0.90
2022-08-31T17:47:20.370Z,0.94
2022-08-31T17:52:27.059Z,1.02
2022-08-31T17:57:33.651Z,1.09
2022-08-31T18:02:40.652Z,0.97
2022-08-31T18:07:47.114Z,0.86
2022-08-31T18:12:54.149Z,0.78
2022-08-31T18:18:00.580Z,0.84
2022-08-31T18:23:08.454Z,1.08
2022-08-31T18:28:14.966Z,1.00
2022-08-31T18:33:22.661Z,0.69
2022-08-31T18:38:29.152Z,0.84
2022-08-31T18:43:35.859Z,0.98
2022-08-31T18:48:42.284Z,0.80
2022-08-31T18:53:49.115Z,0.87
2022-08-31T18:58:55.614Z,0.80
2022-08-31T19:04:06.097Z,0.70
2022-08-31T19:09:02.229Z,0.66
2022-08-31T19:14:09.833Z,0.73
2022-08-31T19:19:18.485Z,0.95
2022-08-31T19:24:26.069Z,0.74
2022-08-31T19:29:32.455Z,0.64
2022-08-31T19:34:40.636Z,0.74
2022-08-31T19:39:47.017Z,0.62
2022-08-31T19:45:21.864Z,0.78
2022-08-31T19:50:00.707Z,0.91
2022-08-31T19:55:09.470Z,0.83
2022-08-31T20:00:14.458Z,0.74
2022-08-31T20:05:21.283Z,0.84
2022-08-31T20:10:30.087Z,0.70
2022-08-31T20:15:34.470Z,0.83
2022-08-31T20:20:41.570Z,0.76
2022-08-31T20:25:56.749Z,0.72
2022-08-31T20:30:55.851Z,0.89
2022-08-31T20:35:52.772Z,0.82
2022-08-31T20:40:59.191Z,1.05
2022-08-31T20:46:05.988Z,0.75
2022-08-31T20:51:12.393Z,0.92
2022-08-31T20:56:19.206Z,0.72
2022-08-31T21:01:25.714Z,1.10
2022-08-31T21:06:32.763Z,0.93
2022-08-31T21:11:39.361Z,1.20
2022-08-31T21:16:46.382Z,0.74
2022-08-31T21:21:53.054Z,0.80
2022-08-31T21:26:59.874Z,1.19
2022-08-31T21:32:06.395Z,1.11
2022-08-31T21:37:13.431Z,1.07
2022-08-31T21:42:20.528Z,1.03
2022-08-31T21:47:27.116Z,1.06
2022-08-31T21:52:33.751Z,1.12
2022-08-31T21:57:40.947Z,1.05
2022-08-31T22:02:47.949Z,1.33
2022-08-31T22:07:55.273Z,1.09
2022-08-31T22:13:01.751Z,1.07
2022-08-31T22:18:46.066Z,1.17
2022-08-31T22:23:14.521Z,1.33
2022-08-31T22:28:21.380Z,1.17
2022-08-31T22:33:27.630Z,1.06
2022-08-31T22:38:34.647Z,1.31
2022-08-31T22:43:41.187Z,1.24
2022-08-31T22:48:47.980Z,1.29
2022-08-31T22:53:54.096Z,1.21
2022-08-31T22:59:00.954Z,1.59
2022-08-31T23:04:08.028Z,1.55
2022-08-31T23:09:15.338Z,1.72
2022-08-31T23:14:21.861Z,1.27
2022-08-31T23:19:29.322Z,1.47
2022-08-31T23:24:35.756Z,1.17
2022-08-31T23:29:42.033Z,1.36
2022-08-31T23:34:48.516Z,1.22
2022-08-31T23:39:55.313Z,1.21
2022-08-31T23:45:01.809Z,1.30
2022-08-31T23:50:11.937Z,1.21
2022-08-31T23:55:09.463Z,1.08
